Green Ice — C6SO4 — position and weather

sailwx.info

Track history (hours):
 
Tides and Currents Weather Stations Pressure Air Temp Water Temp Dewpoint Dewpoint Depression Visibility Wind Speed Wind Dir Waves Ship Positions

Green Ice

Last reported at 2015-Aug-29 08:26 UTC. Time now 2015-Sep-01 14:11 UTC.
Position N 58°34' E 005°16'.

Length 86 m; draft 4.8 m.

MMSI: 311411000.

Date/timePositionNaut miles runAvg speedWind from/ knotsBaromVisibWave heightAir tempDewpointWater temp
2015-Aug-29 08:26N 58°34' E 005°16'1113.2
2015-Aug-29 07:33N 58°27' E 005°33'1413.9
2015-Aug-29 06:34N 58°18' E 005°54'14812.3
2015-Aug-28 18:33N 57°49' E 010°27'1111.2
2015-Aug-28 17:33N 57°47' E 010°48'1313.1
2015-Aug-28 16:33N 57°38' E 011°06'1413.4
2015-Aug-28 15:32N 57°29' E 011°24'1313.1
2015-Aug-28 14:33N 57°17' E 011°33'1413.4
2015-Aug-28 13:32N 57°04' E 011°43'1313.4
2015-Aug-28 12:33N 56°52' E 011°52'1413.4
2015-Aug-28 11:32N 56°40' E 012°03'1313.3
2015-Aug-28 10:33N 56°28' E 012°14'1313.2
2015-Aug-28 09:33N 56°16' E 012°24'1312.7
2015-Aug-28 08:34N 56°05' E 012°36'1111.3
2015-Aug-28 07:34N 55°55' E 012°44'1312.9
2015-Aug-28 06:33N 55°42' E 012°41'10 9.9
2015-Aug-28 05:34N 55°32' E 012°43'1313.2
2015-Aug-28 04:33N 55°19' E 012°42'1312.6
2015-Aug-28 03:33N 55°16' E 013°03'1413.5
2015-Aug-28 02:31N 55°15' E 013°27'1313.7
2015-Aug-28 01:33N 55°14' E 013°50'1413.8
2015-Aug-28 00:33N 55°14' E 014°15'1313.6
2015-Aug-27 23:33N 55°23' E 014°32'1313.2
2015-Aug-27 22:33N 55°27' E 014°54'1413.8
2015-Aug-27 21:34N 55°28' E 015°18'14213.6
2015-Aug-27 11:05N 55°41' E 019°29'713.6
2015-Aug-27 10:33N 55°41' E 019°42'1413.6
2015-Aug-27 09:33N 55°42' E 020°06'1413.7
2015-Aug-27 08:32N 55°44' E 020°30'1413.8
2015-Aug-27 07:34N 55°45' E 020°54'8 7.8
2015-Aug-27 06:34N 55°43' E 021°07'0 0.0
2015-Aug-27 05:33N 55°43' E 021°07'0 0.0
2015-Aug-27 04:33N 55°43' E 021°07'0 0.0
2015-Aug-27 03:32N 55°43' E 021°07'0 0.0
2015-Aug-27 02:33N 55°43' E 021°07'0 0.0
2015-Aug-27 01:30N 55°43' E 021°07'43 3.9
2015-Aug-26 14:29N 55°29' E 019°56'1313.7
2015-Aug-26 13:33N 55°25' E 019°35'1413.6
2015-Aug-26 12:33N 55°19' E 019°13'1313.2
2015-Aug-26 11:33N 55°08' E 019°01'1413.8
2015-Aug-26 10:33N 54°54' E 018°59'1413.8
2015-Aug-26 09:33N 54°40' E 018°58'1413.5
2015-Aug-26 08:33N 54°29' E 018°45'6 5.4
2015-Aug-26 07:31N 54°24' E 018°40'0 0.0
2015-Aug-26 06:31N 54°24' E 018°40'0 0.0
2015-Aug-26 05:31N 54°24' E 018°40'0 0.0
2015-Aug-26 04:28N 54°24' E 018°40'0 0.0
2015-Aug-26 03:31N 54°24' E 018°40'0 0.0
2015-Aug-26 01:28N 54°24' E 018°40'0 0.0
2015-Aug-26 00:31N 54°24' E 018°40'0 0.0
2015-Aug-25 23:31N 54°24' E 018°40'0 0.0
2015-Aug-25 22:31N 54°24' E 018°40'0 0.0
2015-Aug-25 21:28N 54°24' E 018°40'0 0.0
2015-Aug-25 20:31N 54°24' E 018°40'0 0.0
2015-Aug-25 19:31N 54°24' E 018°40'0 0.0
2015-Aug-25 18:31N 54°24' E 018°40'0 0.0
2015-Aug-25 17:31N 54°24' E 018°40'0 0.0
2015-Aug-25 16:31N 54°24' E 018°40'0 0.0
2015-Aug-25 15:31N 54°24' E 018°40'0 0.0
2015-Aug-25 14:28N 54°24' E 018°40'2 2.2
2015-Aug-25 13:33N 54°26' E 018°39'4 3.9
2015-Aug-25 12:33N 54°29' E 018°44'1212.5
2015-Aug-25 11:33N 54°40' E 018°56'1111.5
2015-Aug-25 10:33N 54°49' E 018°43'1212.2
2015-Aug-25 09:33N 54°54' E 018°25'1312.6
2015-Aug-25 08:33N 54°60' E 018°05'1312.3
2015-Aug-25 07:31N 55°03' E 017°43'1412.7
2015-Aug-25 06:26N 55°05' E 017°20'1112.5
2015-Aug-25 05:33N 55°08' E 017°01'2812.5
2015-Aug-25 03:17N 55°14' E 016°13'912.6
2015-Aug-25 02:33N 55°16' E 015°57'1212.5
2015-Aug-25 01:33N 55°19' E 015°35'1212.2
2015-Aug-25 00:33N 55°21' E 015°14'1212.5
2015-Aug-24 23:33N 55°22' E 014°53'1211.6
2015-Aug-24 22:33N 55°19' E 014°33'1212.4
2015-Aug-24 21:33N 55°10' E 014°18'1212.1
2015-Aug-24 20:33N 55°11' E 013°56'1312.2
2015-Aug-24 19:32N 55°12' E 013°35'1212.0
2015-Aug-24 18:33N 55°13' E 013°14'1212.1
2015-Aug-24 17:33N 55°15' E 012°53'1010.4
2015-Aug-24 16:33N 55°21' E 012°39'1211.6
2015-Aug-24 15:33N 55°32' E 012°42'9 9.2
2015-Aug-24 14:33N 55°41' E 012°41'1111.4
2015-Aug-24 13:34N 55°53' E 012°40'1110.8
2015-Aug-24 12:33N 56°04' E 012°38'1010.5
2015-Aug-24 11:33N 56°11' E 012°25'2511.9
2015-Aug-24 09:25N 56°33' E 012°00'1212.2
2015-Aug-24 08:27N 56°44' E 011°51'1311.2
2015-Aug-24 07:19N 56°56' E 011°45'911.8
2015-Aug-24 06:33N 57°04' E 011°39'1311.8
2015-Aug-24 05:28N 57°16' E 011°31'1111.7
2015-Aug-24 04:33N 57°26' E 011°24'1111.3
2015-Aug-24 03:33N 57°34' E 011°10'1111.1
2015-Aug-24 02:33N 57°42' E 010°54'1111.0
2015-Aug-24 01:33N 57°47' E 010°36'1312.6
2015-Aug-24 00:32N 57°47' E 010°12'1312.2
2015-Aug-23 23:28N 57°46' E 009°48'11111.2
2015-Aug-23 13:33N 58°04' E 006°23'1110.7
2015-Aug-23 12:33N 58°08' E 006°04'1010.0
2015-Aug-23 11:33N 58°12' E 005°47'10 9.8
2015-Aug-23 10:33N 58°16' E 005°30'6312.0
2015-Aug-23 05:20N 58°41' E 003°39'31811.8
2015-Aug-22 02:28N 61°44' W 005°05'1111.7
2015-Aug-22 01:33N 61°52' W 005°20'1111.0
2015-Aug-22 00:33N 62°00' W 005°35'1110.8
2015-Aug-21 23:33N 62°09' W 005°49'1110.6
2015-Aug-21 22:33N 62°17' W 006°04'4610.9
2015-Aug-21 18:19N 62°46' W 007°21'  
Track history (hours):
 
Tides and Currents Weather Stations Pressure Air Temp Water Temp Dewpoint Dewpoint Depression Visibility Wind Speed Wind Dir Waves Ship Positions

Green Ice

Last reported at 2015-Aug-29 08:26 UTC. Time now 2015-Sep-01 14:11 UTC.
Position N 58°34' E 005°16'.

Length 86 m; draft 4.8 m.

MMSI: 311411000.

Date/timePositionNaut miles runAvg speedWind from/ knotsBaromVisibWave heightAir tempDewpointWater temp
2015-Aug-29 08:26N 58°34' E 005°16'1113.2
2015-Aug-29 07:33N 58°27' E 005°33'1413.9
2015-Aug-29 06:34N 58°18' E 005°54'14812.3
2015-Aug-28 18:33N 57°49' E 010°27'1111.2
2015-Aug-28 17:33N 57°47' E 010°48'1313.1
2015-Aug-28 16:33N 57°38' E 011°06'1413.4
2015-Aug-28 15:32N 57°29' E 011°24'1313.1
2015-Aug-28 14:33N 57°17' E 011°33'1413.4
2015-Aug-28 13:32N 57°04' E 011°43'1313.4
2015-Aug-28 12:33N 56°52' E 011°52'1413.4
2015-Aug-28 11:32N 56°40' E 012°03'1313.3
2015-Aug-28 10:33N 56°28' E 012°14'1313.2
2015-Aug-28 09:33N 56°16' E 012°24'1312.7
2015-Aug-28 08:34N 56°05' E 012°36'1111.3
2015-Aug-28 07:34N 55°55' E 012°44'1312.9
2015-Aug-28 06:33N 55°42' E 012°41'10 9.9
2015-Aug-28 05:34N 55°32' E 012°43'1313.2
2015-Aug-28 04:33N 55°19' E 012°42'1312.6
2015-Aug-28 03:33N 55°16' E 013°03'1413.5
2015-Aug-28 02:31N 55°15' E 013°27'1313.7
2015-Aug-28 01:33N 55°14' E 013°50'1413.8
2015-Aug-28 00:33N 55°14' E 014°15'1313.6
2015-Aug-27 23:33N 55°23' E 014°32'1313.2
2015-Aug-27 22:33N 55°27' E 014°54'1413.8
2015-Aug-27 21:34N 55°28' E 015°18'14213.6
2015-Aug-27 11:05N 55°41' E 019°29'713.6
2015-Aug-27 10:33N 55°41' E 019°42'1413.6
2015-Aug-27 09:33N 55°42' E 020°06'1413.7
2015-Aug-27 08:32N 55°44' E 020°30'1413.8
2015-Aug-27 07:34N 55°45' E 020°54'8 7.8
2015-Aug-27 06:34N 55°43' E 021°07'0 0.0
2015-Aug-27 05:33N 55°43' E 021°07'0 0.0
2015-Aug-27 04:33N 55°43' E 021°07'0 0.0
2015-Aug-27 03:32N 55°43' E 021°07'0 0.0
2015-Aug-27 02:33N 55°43' E 021°07'0 0.0
2015-Aug-27 01:30N 55°43' E 021°07'43 3.9
2015-Aug-26 14:29N 55°29' E 019°56'1313.7
2015-Aug-26 13:33N 55°25' E 019°35'1413.6
2015-Aug-26 12:33N 55°19' E 019°13'1313.2
2015-Aug-26 11:33N 55°08' E 019°01'1413.8
2015-Aug-26 10:33N 54°54' E 018°59'1413.8
2015-Aug-26 09:33N 54°40' E 018°58'1413.5
2015-Aug-26 08:33N 54°29' E 018°45'6 5.4
2015-Aug-26 07:31N 54°24' E 018°40'0 0.0
2015-Aug-26 06:31N 54°24' E 018°40'0 0.0
2015-Aug-26 05:31N 54°24' E 018°40'0 0.0
2015-Aug-26 04:28N 54°24' E 018°40'0 0.0
2015-Aug-26 03:31N 54°24' E 018°40'0 0.0
2015-Aug-26 01:28N 54°24' E 018°40'0 0.0
2015-Aug-26 00:31N 54°24' E 018°40'0 0.0
2015-Aug-25 23:31N 54°24' E 018°40'0 0.0
2015-Aug-25 22:31N 54°24' E 018°40'0 0.0
2015-Aug-25 21:28N 54°24' E 018°40'0 0.0
2015-Aug-25 20:31N 54°24' E 018°40'0 0.0
2015-Aug-25 19:31N 54°24' E 018°40'0 0.0
2015-Aug-25 18:31N 54°24' E 018°40'0 0.0
2015-Aug-25 17:31N 54°24' E 018°40'0 0.0
2015-Aug-25 16:31N 54°24' E 018°40'0 0.0
2015-Aug-25 15:31N 54°24' E 018°40'0 0.0
2015-Aug-25 14:28N 54°24' E 018°40'2 2.2
2015-Aug-25 13:33N 54°26' E 018°39'4 3.9
2015-Aug-25 12:33N 54°29' E 018°44'1212.5
2015-Aug-25 11:33N 54°40' E 018°56'1111.5
2015-Aug-25 10:33N 54°49' E 018°43'1212.2
2015-Aug-25 09:33N 54°54' E 018°25'1312.6
2015-Aug-25 08:33N 54°60' E 018°05'1312.3
2015-Aug-25 07:31N 55°03' E 017°43'1412.7
2015-Aug-25 06:26N 55°05' E 017°20'1112.5
2015-Aug-25 05:33N 55°08' E 017°01'2812.5
2015-Aug-25 03:17N 55°14' E 016°13'912.6
2015-Aug-25 02:33N 55°16' E 015°57'1212.5
2015-Aug-25 01:33N 55°19' E 015°35'1212.2
2015-Aug-25 00:33N 55°21' E 015°14'1212.5
2015-Aug-24 23:33N 55°22' E 014°53'1211.6
2015-Aug-24 22:33N 55°19' E 014°33'1212.4
2015-Aug-24 21:33N 55°10' E 014°18'1212.1
2015-Aug-24 20:33N 55°11' E 013°56'1312.2
2015-Aug-24 19:32N 55°12' E 013°35'1212.0
2015-Aug-24 18:33N 55°13' E 013°14'1212.1
2015-Aug-24 17:33N 55°15' E 012°53'1010.4
2015-Aug-24 16:33N 55°21' E 012°39'1211.6
2015-Aug-24 15:33N 55°32' E 012°42'9 9.2
2015-Aug-24 14:33N 55°41' E 012°41'1111.4
2015-Aug-24 13:34N 55°53' E 012°40'1110.8
2015-Aug-24 12:33N 56°04' E 012°38'1010.5
2015-Aug-24 11:33N 56°11' E 012°25'2511.9
2015-Aug-24 09:25N 56°33' E 012°00'1212.2
2015-Aug-24 08:27N 56°44' E 011°51'1311.2
2015-Aug-24 07:19N 56°56' E 011°45'911.8
2015-Aug-24 06:33N 57°04' E 011°39'1311.8
2015-Aug-24 05:28N 57°16' E 011°31'1111.7
2015-Aug-24 04:33N 57°26' E 011°24'1111.3
2015-Aug-24 03:33N 57°34' E 011°10'1111.1
2015-Aug-24 02:33N 57°42' E 010°54'1111.0
2015-Aug-24 01:33N 57°47' E 010°36'1312.6
2015-Aug-24 00:32N 57°47' E 010°12'1312.2
2015-Aug-23 23:28N 57°46' E 009°48'11111.2
2015-Aug-23 13:33N 58°04' E 006°23'1110.7
2015-Aug-23 12:33N 58°08' E 006°04'1010.0
2015-Aug-23 11:33N 58°12' E 005°47'10 9.8
2015-Aug-23 10:33N 58°16' E 005°30'6312.0
2015-Aug-23 05:20N 58°41' E 003°39'31811.8
2015-Aug-22 02:28N 61°44' W 005°05'1111.7
2015-Aug-22 01:33N 61°52' W 005°20'1111.0
2015-Aug-22 00:33N 62°00' W 005°35'1110.8
2015-Aug-21 23:33N 62°09' W 005°49'1110.6
2015-Aug-21 22:33N 62°17' W 006°04'4610.9
2015-Aug-21 18:19N 62°46' W 007°21'  

Dump ship's entire track history